CCJ weather

Calicut International Airport
Calicut, Kerala, India

Public forecast

Using degrees Celsius for public forecast. Weather courtesy of forecast.io.

Current aviation weather report (METAR) for Calicut International Airport

Retrieved 2020/05/26 19:00 UTC (1 hour ago):

VOCL 261900Z 30003KT 6000 SCT015 29/24 Q1009 NOSIG

Aviation forecast (TAF) for Calicut International Airport

Retrieved 2020/05/26 18:00 UTC (2 hours ago):

TAF VOCL 261700Z 2618/2724 20005KT 5000 HZ SCT012 TEMPO 2622/2702 33010KT 4000 TSRA RA SCT015 FEW025CB BKN080 TEMPO 2710/2714 32010KT 3000 TSRA RA SCT012 FEW025CB BKN080 BECMG 2716/2718 00000KT 4000 RA BR FEW012 FEW025CB BKN080